sensor_id;sensor_type;location;lat;lon;timestamp;pressure;altitude;pressure_sealevel;temperature;humidity
41706;BME280;27385;51.096;17.190;2023-03-22T00:01:51;100117.93;;;8.69;88.78
41706;BME280;27385;51.096;17.190;2023-03-22T00:04:22;100119.79;;;8.68;88.91
41706;BME280;27385;51.096;17.190;2023-03-22T00:06:54;100114.60;;;8.68;88.90
41706;BME280;27385;51.096;17.190;2023-03-22T00:09:25;100111.63;;;8.69;89.14
41706;BME280;27385;51.096;17.190;2023-03-22T00:11:56;100109.10;;;8.67;89.10
41706;BME280;27385;51.096;17.190;2023-03-22T00:14:27;100107.48;;;8.67;89.17
41706;BME280;27385;51.096;17.190;2023-03-22T00:16:58;100104.02;;;8.67;89.23
41706;BME280;27385;51.096;17.190;2023-03-22T00:19:28;100098.99;;;8.67;89.31
41706;BME280;27385;51.096;17.190;2023-03-22T00:22:02;100097.45;;;8.69;89.41
41706;BME280;27385;51.096;17.190;2023-03-22T00:24:34;100096.77;;;8.70;89.42
41706;BME280;27385;51.096;17.190;2023-03-22T00:27:06;100091.48;;;8.69;89.55
41706;BME280;27385;51.096;17.190;2023-03-22T00:29:37;100087.79;;;8.71;89.71
41706;BME280;27385;51.096;17.190;2023-03-22T00:32:08;100083.61;;;8.70;89.95
41706;BME280;27385;51.096;17.190;2023-03-22T00:34:39;100080.65;;;8.68;89.91
41706;BME280;27385;51.096;17.190;2023-03-22T00:37:10;100077.00;;;8.68;90.11
41706;BME280;27385;51.096;17.190;2023-03-22T00:39:41;100074.44;;;8.67;90.22
41706;BME280;27385;51.096;17.190;2023-03-22T00:42:11;100066.70;;;8.67;90.25
41706;BME280;27385;51.096;17.190;2023-03-22T00:44:42;100067.16;;;8.68;90.34
41706;BME280;27385;51.096;17.190;2023-03-22T00:47:13;100063.87;;;8.65;90.50
41706;BME280;27385;51.096;17.190;2023-03-22T00:49:44;100057.54;;;8.63;90.53
41706;BME280;27385;51.096;17.190;2023-03-22T00:52:15;100053.92;;;8.62;90.70
41706;BME280;27385;51.096;17.190;2023-03-22T00:54:46;100051.71;;;8.60;90.74
41706;BME280;27385;51.096;17.190;2023-03-22T00:57:17;100045.34;;;8.59;91.01
41706;BME280;27385;51.096;17.190;2023-03-22T00:59:48;100045.15;;;8.59;90.89
41706;BME280;27385;51.096;17.190;2023-03-22T01:02:19;100046.67;;;8.59;91.11
41706;BME280;27385;51.096;17.190;2023-03-22T01:04:58;100043.12;;;8.58;91.10
41706;BME280;27385;51.096;17.190;2023-03-22T01:07:29;100042.81;;;8.58;91.15
41706;BME280;27385;51.096;17.190;2023-03-22T01:10:00;100039.02;;;8.58;91.15
41706;BME280;27385;51.096;17.190;2023-03-22T01:12:31;100036.23;;;8.58;91.12
41706;BME280;27385;51.096;17.190;2023-03-22T01:15:02;100030.56;;;8.58;91.27
41706;BME280;27385;51.096;17.190;2023-03-22T01:17:33;100028.95;;;8.57;91.41
41706;BME280;27385;51.096;17.190;2023-03-22T01:20:06;100025.38;;;8.57;91.26
41706;BME280;27385;51.096;17.190;2023-03-22T01:22:38;100027.59;;;8.57;91.41
41706;BME280;27385;51.096;17.190;2023-03-22T01:25:10;100029.72;;;8.56;91.47
41706;BME280;27385;51.096;17.190;2023-03-22T01:27:41;100028.23;;;8.56;91.51
41706;BME280;27385;51.096;17.190;2023-03-22T01:30:13;100021.64;;;8.56;91.66
41706;BME280;27385;51.096;17.190;2023-03-22T01:32:44;100024.55;;;8.54;91.62
41706;BME280;27385;51.096;17.190;2023-03-22T01:35:15;100018.88;;;8.54;91.71
41706;BME280;27385;51.096;17.190;2023-03-22T01:37:46;100010.90;;;8.53;91.72
41706;BME280;27385;51.096;17.190;2023-03-22T01:40:17;100007.13;;;8.53;91.82
41706;BME280;27385;51.096;17.190;2023-03-22T01:42:48;100003.73;;;8.53;91.94
41706;BME280;27385;51.096;17.190;2023-03-22T01:45:39;100005.89;;;8.53;92.00
41706;BME280;27385;51.096;17.190;2023-03-22T01:48:28;99999.44;;;8.53;92.07
41706;BME280;27385;51.096;17.190;2023-03-22T01:51:06;99992.75;;;8.53;92.06
41706;BME280;27385;51.096;17.190;2023-03-22T01:53:42;99989.48;;;8.53;92.02
41706;BME280;27385;51.096;17.190;2023-03-22T01:56:14;99986.73;;;8.53;92.10
41706;BME280;27385;51.096;17.190;2023-03-22T01:58:47;99992.02;;;8.52;92.20
41706;BME280;27385;51.096;17.190;2023-03-22T02:01:19;99996.23;;;8.53;92.16
41706;BME280;27385;51.096;17.190;2023-03-22T02:03:53;100001.19;;;8.54;92.19
41706;BME280;27385;51.096;17.190;2023-03-22T02:06:26;100001.39;;;8.55;92.23
41706;BME280;27385;51.096;17.190;2023-03-22T02:08:58;100000.65;;;8.55;92.20
41706;BME280;27385;51.096;17.190;2023-03-22T02:11:31;99998.98;;;8.57;92.24
41706;BME280;27385;51.096;17.190;2023-03-22T02:14:14;99997.33;;;8.59;92.37
41706;BME280;27385;51.096;17.190;2023-03-22T02:16:57;99994.24;;;8.58;92.19
41706;BME280;27385;51.096;17.190;2023-03-22T02:19:58;99992.57;;;8.58;92.38
41706;BME280;27385;51.096;17.190;2023-03-22T02:25:49;99982.73;;;8.59;92.48
41706;BME280;27385;51.096;17.190;2023-03-22T02:28:35;99981.77;;;8.60;92.59
41706;BME280;27385;51.096;17.190;2023-03-22T02:31:35;99978.61;;;8.59;92.61
41706;BME280;27385;51.096;17.190;2023-03-22T02:34:36;99978.63;;;8.57;92.67
41706;BME280;27385;51.096;17.190;2023-03-22T02:37:38;99984.48;;;8.58;92.70
41706;BME280;27385;51.096;17.190;2023-03-22T02:40:15;99984.20;;;8.57;92.84
41706;BME280;27385;51.096;17.190;2023-03-22T02:42:56;99979.02;;;8.56;92.80
41706;BME280;27385;51.096;17.190;2023-03-22T02:45:32;99981.41;;;8.55;93.05
41706;BME280;27385;51.096;17.190;2023-03-22T02:48:08;99981.52;;;8.55;92.91
41706;BME280;27385;51.096;17.190;2023-03-22T02:50:44;99980.52;;;8.55;92.99
41706;BME280;27385;51.096;17.190;2023-03-22T02:53:20;99975.95;;;8.55;93.25
41706;BME280;27385;51.096;17.190;2023-03-22T02:55:57;99977.38;;;8.55;93.27
41706;BME280;27385;51.096;17.190;2023-03-22T02:58:31;99975.98;;;8.54;93.12
41706;BME280;27385;51.096;17.190;2023-03-22T03:01:06;99980.85;;;8.54;93.10
41706;BME280;27385;51.096;17.190;2023-03-22T03:03:39;99976.44;;;8.55;93.34
41706;BME280;27385;51.096;17.190;2023-03-22T03:06:15;99979.78;;;8.56;93.28
41706;BME280;27385;51.096;17.190;2023-03-22T03:08:48;99981.86;;;8.58;93.30
41706;BME280;27385;51.096;17.190;2023-03-22T03:11:20;99982.39;;;8.60;93.33
41706;BME280;27385;51.096;17.190;2023-03-22T03:13:51;99980.15;;;8.62;93.35
41706;BME280;27385;51.096;17.190;2023-03-22T03:16:26;99981.29;;;8.63;93.37
41706;BME280;27385;51.096;17.190;2023-03-22T03:19:02;99981.84;;;8.64;93.28
41706;BME280;27385;51.096;17.190;2023-03-22T03:21:42;99981.50;;;8.65;93.40
41706;BME280;27385;51.096;17.190;2023-03-22T03:24:25;99975.20;;;8.66;93.44
41706;BME280;27385;51.096;17.190;2023-03-22T03:27:01;99979.48;;;8.66;93.57
41706;BME280;27385;51.096;17.190;2023-03-22T03:29:40;99986.20;;;8.65;93.41
41706;BME280;27385;51.096;17.190;2023-03-22T03:32:15;99986.11;;;8.63;93.43
41706;BME280;27385;51.096;17.190;2023-03-22T03:34:53;99988.49;;;8.64;93.64
41706;BME280;27385;51.096;17.190;2023-03-22T03:37:29;99991.13;;;8.63;93.64
41706;BME280;27385;51.096;17.190;2023-03-22T03:40:05;99993.69;;;8.63;93.76
41706;BME280;27385;51.096;17.190;2023-03-22T03:42:41;99999.59;;;8.63;93.75
41706;BME280;27385;51.096;17.190;2023-03-22T03:45:14;100004.72;;;8.63;93.77
41706;BME280;27385;51.096;17.190;2023-03-22T03:47:48;100009.09;;;8.65;93.85
41706;BME280;27385;51.096;17.190;2023-03-22T03:50:26;100018.41;;;8.66;93.84
41706;BME280;27385;51.096;17.190;2023-03-22T03:52:57;100018.73;;;8.65;93.77
41706;BME280;27385;51.096;17.190;2023-03-22T03:55:29;100022.67;;;8.62;93.76
41706;BME280;27385;51.096;17.190;2023-03-22T03:58:00;100020.44;;;8.62;93.85
41706;BME280;27385;51.096;17.190;2023-03-22T04:00:31;100018.17;;;8.63;93.88
41706;BME280;27385;51.096;17.190;2023-03-22T04:03:02;100015.33;;;8.63;94.05
41706;BME280;27385;51.096;17.190;2023-03-22T04:05:34;100015.67;;;8.62;94.21
41706;BME280;27385;51.096;17.190;2023-03-22T04:08:05;100021.86;;;8.62;94.17
41706;BME280;27385;51.096;17.190;2023-03-22T04:10:36;100024.21;;;8.63;94.15
41706;BME280;27385;51.096;17.190;2023-03-22T04:13:07;100019.34;;;8.65;94.18
41706;BME280;27385;51.096;17.190;2023-03-22T04:15:38;100021.13;;;8.66;94.00
41706;BME280;27385;51.096;17.190;2023-03-22T04:18:09;100017.70;;;8.66;94.24
41706;BME280;27385;51.096;17.190;2023-03-22T04:20:40;100019.66;;;8.65;94.10
41706;BME280;27385;51.096;17.190;2023-03-22T04:23:13;100015.18;;;8.66;94.16
41706;BME280;27385;51.096;17.190;2023-03-22T04:25:44;100017.00;;;8.63;94.17
41706;BME280;27385;51.096;17.190;2023-03-22T04:28:18;100014.60;;;8.61;94.36
41706;BME280;27385;51.096;17.190;2023-03-22T04:30:49;100015.80;;;8.59;94.45
41706;BME280;27385;51.096;17.190;2023-03-22T04:33:21;100013.49;;;8.60;94.47
41706;BME280;27385;51.096;17.190;2023-03-22T04:35:52;100007.98;;;8.57;94.53
41706;BME280;27385;51.096;17.190;2023-03-22T04:38:25;100005.02;;;8.56;94.60
41706;BME280;27385;51.096;17.190;2023-03-22T04:40:56;100004.59;;;8.53;94.59
41706;BME280;27385;51.096;17.190;2023-03-22T04:43:26;99999.66;;;8.52;94.71
41706;BME280;27385;51.096;17.190;2023-03-22T04:45:57;99998.86;;;8.50;94.80
41706;BME280;27385;51.096;17.190;2023-03-22T04:48:30;99996.70;;;8.51;94.69
41706;BME280;27385;51.096;17.190;2023-03-22T04:51:00;99996.70;;;8.51;94.79
41706;BME280;27385;51.096;17.190;2023-03-22T04:53:32;99994.09;;;8.52;94.74
41706;BME280;27385;51.096;17.190;2023-03-22T04:56:10;99994.87;;;8.50;94.59
41706;BME280;27385;51.096;17.190;2023-03-22T04:58:42;99992.80;;;8.50;94.71
41706;BME280;27385;51.096;17.190;2023-03-22T05:01:15;99988.00;;;8.51;94.72
41706;BME280;27385;51.096;17.190;2023-03-22T05:03:46;99985.16;;;8.51;94.70
41706;BME280;27385;51.096;17.190;2023-03-22T05:06:17;99979.92;;;8.47;94.75
41706;BME280;27385;51.096;17.190;2023-03-22T05:08:48;99979.38;;;8.44;95.01
41706;BME280;27385;51.096;17.190;2023-03-22T05:11:18;99977.27;;;8.42;94.91
41706;BME280;27385;51.096;17.190;2023-03-22T05:13:50;99975.48;;;8.42;95.11
41706;BME280;27385;51.096;17.190;2023-03-22T05:16:21;99968.93;;;8.43;94.99
41706;BME280;27385;51.096;17.190;2023-03-22T05:18:53;99967.88;;;8.43;94.95
41706;BME280;27385;51.096;17.190;2023-03-22T05:21:24;99969.70;;;8.43;94.86
41706;BME280;27385;51.096;17.190;2023-03-22T05:23:58;99975.42;;;8.43;95.15
41706;BME280;27385;51.096;17.190;2023-03-22T05:26:29;99978.08;;;8.42;95.08
41706;BME280;27385;51.096;17.190;2023-03-22T05:29:00;99978.31;;;8.41;95.31
41706;BME280;27385;51.096;17.190;2023-03-22T05:31:31;99976.80;;;8.39;95.24
41706;BME280;27385;51.096;17.190;2023-03-22T05:34:03;99981.23;;;8.38;95.47
41706;BME280;27385;51.096;17.190;2023-03-22T05:36:34;99981.20;;;8.37;95.57
41706;BME280;27385;51.096;17.190;2023-03-22T05:39:06;99987.48;;;8.37;95.70
41706;BME280;27385;51.096;17.190;2023-03-22T05:41:37;99991.56;;;8.37;95.67
41706;BME280;27385;51.096;17.190;2023-03-22T05:44:08;99991.92;;;8.37;95.68
41706;BME280;27385;51.096;17.190;2023-03-22T05:46:39;99991.18;;;8.36;95.98
41706;BME280;27385;51.096;17.190;2023-03-22T05:49:10;99994.32;;;8.36;96.01
41706;BME280;27385;51.096;17.190;2023-03-22T05:51:41;99994.90;;;8.37;96.12
41706;BME280;27385;51.096;17.190;2023-03-22T05:54:12;99997.20;;;8.38;96.34
41706;BME280;27385;51.096;17.190;2023-03-22T05:56:43;99999.50;;;8.39;96.46
41706;BME280;27385;51.096;17.190;2023-03-22T05:59:14;99999.12;;;8.40;96.56
41706;BME280;27385;51.096;17.190;2023-03-22T06:01:45;99997.53;;;8.41;96.72
41706;BME280;27385;51.096;17.190;2023-03-22T06:04:16;99992.70;;;8.44;96.76
41706;BME280;27385;51.096;17.190;2023-03-22T06:06:47;99992.28;;;8.48;96.92
41706;BME280;27385;51.096;17.190;2023-03-22T06:09:18;99994.60;;;8.49;96.83
41706;BME280;27385;51.096;17.190;2023-03-22T06:11:49;99997.63;;;8.51;96.99
41706;BME280;27385;51.096;17.190;2023-03-22T06:14:20;99995.72;;;8.52;97.02
41706;BME280;27385;51.096;17.190;2023-03-22T06:16:51;99993.27;;;8.55;97.11
41706;BME280;27385;51.096;17.190;2023-03-22T06:19:22;99988.89;;;8.59;97.33
41706;BME280;27385;51.096;17.190;2023-03-22T06:21:54;99991.50;;;8.62;97.37
41706;BME280;27385;51.096;17.190;2023-03-22T06:24:25;99994.42;;;8.64;97.54
41706;BME280;27385;51.096;17.190;2023-03-22T06:26:56;99991.88;;;8.66;97.72
41706;BME280;27385;51.096;17.190;2023-03-22T06:29:27;99989.20;;;8.68;97.59
41706;BME280;27385;51.096;17.190;2023-03-22T06:31:58;99993.45;;;8.73;97.83
41706;BME280;27385;51.096;17.190;2023-03-22T06:34:29;99985.41;;;8.77;97.92
41706;BME280;27385;51.096;17.190;2023-03-22T06:37:00;99985.70;;;8.83;97.97
41706;BME280;27385;51.096;17.190;2023-03-22T06:39:31;99983.25;;;8.87;98.18
41706;BME280;27385;51.096;17.190;2023-03-22T06:42:02;99984.59;;;8.93;98.27
41706;BME280;27385;51.096;17.190;2023-03-22T06:44:33;99987.54;;;8.99;98.46
41706;BME280;27385;51.096;17.190;2023-03-22T06:47:05;99988.95;;;9.06;98.44
41706;BME280;27385;51.096;17.190;2023-03-22T06:49:36;99993.71;;;9.13;98.85
41706;BME280;27385;51.096;17.190;2023-03-22T06:52:07;99995.27;;;9.22;98.64
41706;BME280;27385;51.096;17.190;2023-03-22T06:54:38;99996.70;;;9.30;98.87
41706;BME280;27385;51.096;17.190;2023-03-22T06:57:09;99998.11;;;9.38;99.06
41706;BME280;27385;51.096;17.190;2023-03-22T06:59:40;99996.70;;;9.45;99.01
41706;BME280;27385;51.096;17.190;2023-03-22T07:02:12;100001.34;;;9.52;98.77
41706;BME280;27385;51.096;17.190;2023-03-22T07:04:45;100001.85;;;9.57;98.62
41706;BME280;27385;51.096;17.190;2023-03-22T07:07:16;100000.44;;;9.63;98.85
41706;BME280;27385;51.096;17.190;2023-03-22T07:09:47;100005.11;;;9.69;98.77
41706;BME280;27385;51.096;17.190;2023-03-22T07:12:19;100008.31;;;9.75;98.69
41706;BME280;27385;51.096;17.190;2023-03-22T07:14:49;100008.34;;;9.82;98.63
41706;BME280;27385;51.096;17.190;2023-03-22T07:17:20;100010.92;;;9.91;98.70
41706;BME280;27385;51.096;17.190;2023-03-22T07:19:51;100010.08;;;9.97;98.75
41706;BME280;27385;51.096;17.190;2023-03-22T07:22:22;100005.53;;;10.05;98.62
41706;BME280;27385;51.096;17.190;2023-03-22T07:24:56;100006.00;;;10.12;98.40
41706;BME280;27385;51.096;17.190;2023-03-22T07:27:26;100006.48;;;10.19;98.33
41706;BME280;27385;51.096;17.190;2023-03-22T07:29:57;99996.98;;;10.27;98.48
41706;BME280;27385;51.096;17.190;2023-03-22T07:32:28;99990.86;;;10.35;98.40
41706;BME280;27385;51.096;17.190;2023-03-22T07:34:59;99992.50;;;10.43;98.19
41706;BME280;27385;51.096;17.190;2023-03-22T07:37:30;99989.42;;;10.51;98.37
41706;BME280;27385;51.096;17.190;2023-03-22T07:40:01;99990.55;;;10.57;98.10
41706;BME280;27385;51.096;17.190;2023-03-22T07:42:33;99989.66;;;10.64;97.83
41706;BME280;27385;51.096;17.190;2023-03-22T07:45:06;99993.30;;;10.70;97.69
41706;BME280;27385;51.096;17.190;2023-03-22T07:47:37;99983.50;;;10.76;97.99
41706;BME280;27385;51.096;17.190;2023-03-22T07:50:09;99983.21;;;10.84;97.91
41706;BME280;27385;51.096;17.190;2023-03-22T07:52:41;99982.49;;;10.91;97.67
41706;BME280;27385;51.096;17.190;2023-03-22T07:55:14;99981.77;;;10.97;97.31
41706;BME280;27385;51.096;17.190;2023-03-22T07:57:45;99972.90;;;11.03;97.30
41706;BME280;27385;51.096;17.190;2023-03-22T08:00:17;99972.27;;;11.10;97.06
41706;BME280;27385;51.096;17.190;2023-03-22T08:02:48;99976.88;;;11.17;96.62
41706;BME280;27385;51.096;17.190;2023-03-22T08:05:20;99974.83;;;11.23;96.62
41706;BME280;27385;51.096;17.190;2023-03-22T08:07:52;99969.73;;;11.30;96.35
41706;BME280;27385;51.096;17.190;2023-03-22T08:10:25;99966.39;;;11.41;96.46
41706;BME280;27385;51.096;17.190;2023-03-22T08:12:56;99970.94;;;11.53;96.38
41706;BME280;27385;51.096;17.190;2023-03-22T08:15:27;99971.86;;;11.63;95.40
41706;BME280;27385;51.096;17.190;2023-03-22T08:17:59;99973.45;;;11.70;95.39
41706;BME280;27385;51.096;17.190;2023-03-22T08:20:30;99972.98;;;11.80;95.38
41706;BME280;27385;51.096;17.190;2023-03-22T08:23:02;99966.07;;;11.92;95.24
41706;BME280;27385;51.096;17.190;2023-03-22T08:25:34;99965.83;;;12.03;94.66
41706;BME280;27385;51.096;17.190;2023-03-22T08:28:05;99965.27;;;12.16;94.15
41706;BME280;27385;51.096;17.190;2023-03-22T08:30:36;99964.54;;;12.26;93.99
41706;BME280;27385;51.096;17.190;2023-03-22T08:33:08;99968.98;;;12.34;93.29
41706;BME280;27385;51.096;17.190;2023-03-22T08:35:40;99967.90;;;12.42;92.69
41706;BME280;27385;51.096;17.190;2023-03-22T08:38:11;99963.23;;;12.45;92.25
41706;BME280;27385;51.096;17.190;2023-03-22T08:40:46;99962.55;;;12.47;92.15
41706;BME280;27385;51.096;17.190;2023-03-22T08:43:18;99964.31;;;12.52;91.48
41706;BME280;27385;51.096;17.190;2023-03-22T08:45:49;99968.61;;;12.55;91.25
41706;BME280;27385;51.096;17.190;2023-03-22T08:48:20;99967.33;;;12.61;91.52
41706;BME280;27385;51.096;17.190;2023-03-22T08:50:52;99968.52;;;12.70;91.46
41706;BME280;27385;51.096;17.190;2023-03-22T08:53:23;99967.73;;;12.79;91.28
41706;BME280;27385;51.096;17.190;2023-03-22T08:55:54;99964.38;;;12.89;90.61
41706;BME280;27385;51.096;17.190;2023-03-22T08:58:26;99958.20;;;12.95;89.41
41706;BME280;27385;51.096;17.190;2023-03-22T09:00:59;99955.77;;;12.98;89.50
41706;BME280;27385;51.096;17.190;2023-03-22T09:03:30;99958.64;;;13.02;89.36
41706;BME280;27385;51.096;17.190;2023-03-22T09:06:01;99956.30;;;13.07;89.01
41706;BME280;27385;51.096;17.190;2023-03-22T09:08:31;99959.77;;;13.07;88.29
41706;BME280;27385;51.096;17.190;2023-03-22T09:11:03;99957.22;;;13.08;88.62
41706;BME280;27385;51.096;17.190;2023-03-22T09:13:34;99955.90;;;13.11;88.18
41706;BME280;27385;51.096;17.190;2023-03-22T09:16:07;99950.71;;;13.14;87.68
41706;BME280;27385;51.096;17.190;2023-03-22T09:18:39;99946.80;;;13.15;87.33
41706;BME280;27385;51.096;17.190;2023-03-22T09:21:11;99945.90;;;13.18;87.33
41706;BME280;27385;51.096;17.190;2023-03-22T09:23:42;99946.52;;;13.23;87.17
41706;BME280;27385;51.096;17.190;2023-03-22T09:26:16;99943.37;;;13.24;86.98
41706;BME280;27385;51.096;17.190;2023-03-22T09:28:47;99940.63;;;13.28;86.70
41706;BME280;27385;51.096;17.190;2023-03-22T09:31:18;99936.23;;;13.29;86.38
41706;BME280;27385;51.096;17.190;2023-03-22T09:33:49;99938.15;;;13.30;85.95
41706;BME280;27385;51.096;17.190;2023-03-22T09:36:21;99934.42;;;13.33;85.53
41706;BME280;27385;51.096;17.190;2023-03-22T09:38:52;99931.58;;;13.36;85.11
41706;BME280;27385;51.096;17.190;2023-03-22T09:41:26;99930.70;;;13.38;85.03
41706;BME280;27385;51.096;17.190;2023-03-22T09:44:03;99930.58;;;13.45;84.83
41706;BME280;27385;51.096;17.190;2023-03-22T09:46:38;99930.66;;;13.56;84.69
41706;BME280;27385;51.096;17.190;2023-03-22T09:49:15;99931.02;;;13.69;84.61
41706;BME280;27385;51.096;17.190;2023-03-22T09:51:50;99927.43;;;13.82;84.18
41706;BME280;27385;51.096;17.190;2023-03-22T09:54:29;99926.98;;;13.92;83.78
41706;BME280;27385;51.096;17.190;2023-03-22T09:57:06;99923.77;;;13.98;83.08
41706;BME280;27385;51.096;17.190;2023-03-22T09:59:46;99921.84;;;14.00;82.62
41706;BME280;27385;51.096;17.190;2023-03-22T10:02:40;99927.23;;;14.04;81.67
41706;BME280;27385;51.096;17.190;2023-03-22T10:05:21;99923.80;;;14.09;81.86
41706;BME280;27385;51.096;17.190;2023-03-22T10:10:51;99920.19;;;14.17;81.29
41706;BME280;27385;51.096;17.190;2023-03-22T10:13:27;99915.28;;;14.21;81.24
41706;BME280;27385;51.096;17.190;2023-03-22T10:16:12;99913.50;;;14.24;80.44
41706;BME280;27385;51.096;17.190;2023-03-22T10:18:51;99917.23;;;14.28;80.79
41706;BME280;27385;51.096;17.190;2023-03-22T10:21:27;99913.60;;;14.37;80.94
41706;BME280;27385;51.096;17.190;2023-03-22T10:24:02;99915.44;;;14.45;80.71
41706;BME280;27385;51.096;17.190;2023-03-22T10:26:37;99916.39;;;14.52;80.65
41706;BME280;27385;51.096;17.190;2023-03-22T10:29:14;99911.21;;;14.60;79.85
41706;BME280;27385;51.096;17.190;2023-03-22T10:31:47;99917.52;;;14.66;79.58
41706;BME280;27385;51.096;17.190;2023-03-22T10:34:21;99910.71;;;14.74;78.67
41706;BME280;27385;51.096;17.190;2023-03-22T10:36:53;99906.38;;;14.77;78.62
41706;BME280;27385;51.096;17.190;2023-03-22T10:39:31;99909.76;;;14.81;78.88
41706;BME280;27385;51.096;17.190;2023-03-22T10:42:06;99909.78;;;14.90;78.49
41706;BME280;27385;51.096;17.190;2023-03-22T10:44:44;99907.45;;;14.98;78.14
41706;BME280;27385;51.096;17.190;2023-03-22T10:47:21;99913.12;;;15.10;78.17
41706;BME280;27385;51.096;17.190;2023-03-22T10:49:59;99908.84;;;15.20;77.59
41706;BME280;27385;51.096;17.190;2023-03-22T10:52:43;99909.03;;;15.22;76.64
41706;BME280;27385;51.096;17.190;2023-03-22T10:55:16;99906.13;;;15.28;77.40
41706;BME280;27385;51.096;17.190;2023-03-22T10:57:53;99905.52;;;15.35;76.97
41706;BME280;27385;51.096;17.190;2023-03-22T11:00:26;99898.54;;;15.40;76.17
41706;BME280;27385;51.096;17.190;2023-03-22T11:03:01;99899.73;;;15.44;76.28
41706;BME280;27385;51.096;17.190;2023-03-22T11:05:32;99898.15;;;15.50;75.92
41706;BME280;27385;51.096;17.190;2023-03-22T11:08:03;99893.42;;;15.54;75.31
41706;BME280;27385;51.096;17.190;2023-03-22T11:10:35;99894.27;;;15.58;75.85
41706;BME280;27385;51.096;17.190;2023-03-22T11:13:17;99890.90;;;15.65;75.46
41706;BME280;27385;51.096;17.190;2023-03-22T11:15:54;99884.82;;;15.70;75.49
41706;BME280;27385;51.096;17.190;2023-03-22T11:18:25;99881.42;;;15.81;75.58
41706;BME280;27385;51.096;17.190;2023-03-22T11:21:03;99878.91;;;15.91;75.27
41706;BME280;27385;51.096;17.190;2023-03-22T11:23:39;99877.25;;;16.00;74.95
41706;BME280;27385;51.096;17.190;2023-03-22T11:26:13;99872.88;;;16.04;73.70
41706;BME280;27385;51.096;17.190;2023-03-22T11:28:47;99869.77;;;16.07;73.60
41706;BME280;27385;51.096;17.190;2023-03-22T12:27:03;99804.08;;;17.03;69.00
41706;BME280;27385;51.096;17.190;2023-03-22T12:29:40;99798.38;;;17.17;68.04
41706;BME280;27385;51.096;17.190;2023-03-22T12:32:18;99800.11;;;17.21;67.71
41706;BME280;27385;51.096;17.190;2023-03-22T12:34:53;99790.38;;;17.24;67.69
41706;BME280;27385;51.096;17.190;2023-03-22T12:37:28;99793.91;;;17.28;67.53
41706;BME280;27385;51.096;17.190;2023-03-22T12:40:03;99791.06;;;17.30;66.63
41706;BME280;27385;51.096;17.190;2023-03-22T12:42:40;99792.29;;;17.33;66.57
41706;BME280;27385;51.096;17.190;2023-03-22T12:45:16;99785.31;;;17.34;66.43
41706;BME280;27385;51.096;17.190;2023-03-22T12:47:50;99787.04;;;17.38;66.51
41706;BME280;27385;51.096;17.190;2023-03-22T12:50:24;99788.83;;;17.41;65.50
41706;BME280;27385;51.096;17.190;2023-03-22T12:52:58;99789.80;;;17.44;64.89
41706;BME280;27385;51.096;17.190;2023-03-22T12:55:33;99787.84;;;17.43;64.19
41706;BME280;27385;51.096;17.190;2023-03-22T12:58:07;99781.72;;;17.40;63.45
41706;BME280;27385;51.096;17.190;2023-03-22T13:00:43;99777.76;;;17.37;62.52
41706;BME280;27385;51.096;17.190;2023-03-22T13:03:25;99776.48;;;17.37;63.31
41706;BME280;27385;51.096;17.190;2023-03-22T13:06:04;99772.79;;;17.43;63.05
41706;BME280;27385;51.096;17.190;2023-03-22T13:09:09;99764.70;;;17.48;62.60
41706;BME280;27385;51.096;17.190;2023-03-22T13:11:44;99762.32;;;17.51;62.14
41706;BME280;27385;51.096;17.190;2023-03-22T13:14:55;99760.54;;;17.53;61.54
41706;BME280;27385;51.096;17.190;2023-03-22T13:17:42;99756.15;;;17.52;61.13
41706;BME280;27385;51.096;17.190;2023-03-22T13:20:24;99757.92;;;17.48;60.36
41706;BME280;27385;51.096;17.190;2023-03-22T13:23:23;99760.79;;;17.45;59.73
41706;BME280;27385;51.096;17.190;2023-03-22T13:26:04;99750.48;;;17.42;59.78
41706;BME280;27385;51.096;17.190;2023-03-22T13:28:35;99746.36;;;17.43;59.60
41706;BME280;27385;51.096;17.190;2023-03-22T13:31:15;99749.77;;;17.45;59.41
41706;BME280;27385;51.096;17.190;2023-03-22T13:34:01;99743.44;;;17.50;59.07
41706;BME280;27385;51.096;17.190;2023-03-22T13:36:33;99739.71;;;17.53;57.85
41706;BME280;27385;51.096;17.190;2023-03-22T13:39:10;99735.92;;;17.53;58.07
41706;BME280;27385;51.096;17.190;2023-03-22T13:41:45;99737.21;;;17.58;58.47
41706;BME280;27385;51.096;17.190;2023-03-22T13:44:27;99742.09;;;17.64;57.88
41706;BME280;27385;51.096;17.190;2023-03-22T13:47:00;99737.71;;;17.67;57.35
41706;BME280;27385;51.096;17.190;2023-03-22T13:49:49;99740.94;;;17.69;56.73
41706;BME280;27385;51.096;17.190;2023-03-22T13:52:37;99739.49;;;17.66;56.46
41706;BME280;27385;51.096;17.190;2023-03-22T13:55:37;99732.95;;;17.64;56.69
41706;BME280;27385;51.096;17.190;2023-03-22T13:58:36;99732.70;;;17.63;56.22
41706;BME280;27385;51.096;17.190;2023-03-22T14:01:25;99731.55;;;17.61;56.21
41706;BME280;27385;51.096;17.190;2023-03-22T14:04:00;99726.73;;;17.61;55.97
41706;BME280;27385;51.096;17.190;2023-03-22T14:06:36;99727.48;;;17.63;56.39
41706;BME280;27385;51.096;17.190;2023-03-22T14:09:17;99728.29;;;17.66;56.28
41706;BME280;27385;51.096;17.190;2023-03-22T14:11:54;99722.05;;;17.70;56.22
41706;BME280;27385;51.096;17.190;2023-03-22T14:14:28;99722.13;;;17.75;56.32
41706;BME280;27385;51.096;17.190;2023-03-22T14:17:04;99717.45;;;17.77;56.22
41706;BME280;27385;51.096;17.190;2023-03-22T14:19:41;99716.18;;;17.77;56.12
41706;BME280;27385;51.096;17.190;2023-03-22T14:22:16;99708.35;;;17.75;55.94
41706;BME280;27385;51.096;17.190;2023-03-22T14:24:50;99711.86;;;17.75;56.21
41706;BME280;27385;51.096;17.190;2023-03-22T14:27:22;99708.02;;;17.75;56.13
41706;BME280;27385;51.096;17.190;2023-03-22T14:29:54;99705.23;;;17.75;56.25
41706;BME280;27385;51.096;17.190;2023-03-22T14:32:27;99702.92;;;17.77;56.17